PWSweather.com
Personal Weather Stations
Station Observations
WISCHPK61
Green Bay Schmitt Park, Green Bay, WI 54311

Green Bay Schmitt ParkGreen Bay, WI 54311

Lat: 44.514277, Lon: -87.935067

Elevation: 735

Station Type: Acu Rite Pro Weather Center model 02032C

http://greenbayweathercam.com

High Low Average
Temperature 73.3°F22.9°C 63.2°F17.3°C 67.5°F19.7°C
Dew Point 73.0°F22.8°C 62.9°F17.2°C 67.2°F19.6°C
Winds Calm Calm Calm Calm Calm SSWCalm SSW
Wind Gusts -- -- --
Humidity 99% 99% 99%
Pressure 29.32 in992.9 mb 29.23 in989.8 mb -
Precipitation 0.01 in0.3 mm - -
Hour Temp Dew Point Humidity Winds Wind Gusts Pressure Precip Precip Rate Daily Precip Total
12:00 AM 66.9°F19.4°C 66.6°F19.2°C 99% Calm Calm -- 29.27 in991.2 mb - 0.00 in0.0 mm 0.00 in0.0 mm
01:00 AM 67.8°F19.9°C 67.5°F19.7°C 99% Calm Calm -- 29.30 in992.2 mb - 0.00 in0.0 mm 0.00 in0.0 mm
02:00 AM 65.3°F18.5°C 65.0°F18.3°C 99% Calm Calm -- 29.27 in991.2 mb - 0.01 in0.3 mm 0.01 in0.3 mm
03:00 AM 64.3°F17.9°C 64.0°F17.8°C 99% Calm Calm -- 29.27 in991.2 mb - 0.01 in0.3 mm 0.01 in0.3 mm
04:00 AM 64.8°F18.2°C 64.5°F18.1°C 99% Calm Calm -- 29.28 in991.5 mb - 0.00 in0.0 mm 0.01 in0.3 mm
05:00 AM 64.7°F18.2°C 64.4°F18.0°C 99% Calm Calm -- 29.30 in992.2 mb - 0.00 in0.0 mm 0.01 in0.3 mm
06:00 AM 64.0°F17.8°C 63.7°F17.6°C 99% Calm Calm -- 29.29 in991.9 mb - 0.00 in0.0 mm 0.01 in0.3 mm
07:00 AM 63.7°F17.6°C 63.4°F17.4°C 99% Calm Calm -- 29.30 in992.2 mb - 0.00 in0.0 mm 0.01 in0.3 mm
08:00 AM 64.8°F18.2°C 64.5°F18.1°C 99% Calm Calm -- 29.30 in992.2 mb - 0.00 in0.0 mm 0.01 in0.3 mm
09:00 AM 66.4°F19.1°C 66.1°F18.9°C 99% Calm Calm -- 29.31 in992.6 mb - 0.00 in0.0 mm 0.01 in0.3 mm
10:00 AM 68.2°F20.1°C 67.9°F19.9°C 99% Calm Calm -- 29.31 in992.6 mb - 0.00 in0.0 mm 0.01 in0.3 mm
11:00 AM 70.7°F21.5°C 70.4°F21.3°C 99% Calm Calm -- 29.32 in992.9 mb - 0.00 in0.0 mm 0.01 in0.3 mm
12:00 PM 71.4°F21.9°C 71.1°F21.7°C 99% Calm Calm -- 29.32 in992.9 mb - 0.00 in0.0 mm 0.01 in0.3 mm
01:00 PM 73.0°F22.8°C 72.7°F22.6°C 99% Calm Calm -- 29.31 in992.6 mb - 0.00 in0.0 mm 0.01 in0.3 mm
02:00 PM 72.5°F22.5°C 72.2°F22.3°C 99% Calm Calm -- 29.30 in992.2 mb - 0.00 in0.0 mm 0.01 in0.3 mm
03:00 PM 73.3°F22.9°C 73.0°F22.8°C 99% Calm Calm -- 29.27 in991.2 mb - 0.00 in0.0 mm 0.01 in0.3 mm
04:00 PM 71.8°F22.1°C 71.5°F21.9°C 99% Calm Calm -- 29.26 in990.9 mb - 0.00 in0.0 mm 0.01 in0.3 mm
05:00 PM 70.7°F21.5°C 70.4°F21.3°C 99% Calm Calm -- 29.25 in990.5 mb - 0.00 in0.0 mm 0.01 in0.3 mm
06:00 PM 69.3°F20.7°C 69.0°F20.6°C 99% Calm Calm -- 29.24 in990.2 mb - 0.00 in0.0 mm 0.01 in0.3 mm
07:00 PM 69.7°F20.9°C 69.4°F20.8°C 99% Calm Calm -- 29.23 in989.8 mb - 0.00 in0.0 mm 0.01 in0.3 mm
08:00 PM 67.7°F19.8°C 67.4°F19.7°C 99% Calm Calm -- 29.23 in989.8 mb - 0.00 in0.0 mm 0.01 in0.3 mm
09:00 PM 65.3°F18.5°C 65.0°F18.3°C 99% Calm Calm -- 29.23 in989.8 mb - 0.00 in0.0 mm 0.01 in0.3 mm
10:00 PM 64.0°F17.8°C 63.7°F17.6°C 99% Calm Calm -- 29.25 in990.5 mb - 0.00 in0.0 mm 0.01 in0.3 mm
11:00 PM 64.0°F17.8°C 63.7°F17.6°C 99% Calm Calm -- 29.25 in990.5 mb - 0.00 in0.0 mm 0.01 in0.3 mm